Time;durP1;ratioP1;P1;durP2;ratioP2;P2;SDS_P1;SDS_P2;PMS_P1;PMS_P2;Temp;Humidity;BMP_temperature;BMP_pressure;BME280_temperature;BME280_humidity;BME280_pressure;Samples;Min_cycle;Max_cycle;Signal;HPM_P1;HPM_P2
2022/05/04 00:00:42;;;;;;;9.40;5.53;;;11.10;99.90;;;;;;5116564;28;20170;-66
2022/05/04 00:03:08;;;;;;;5.40;4.57;;;11.20;99.90;;;;;;5129678;27;20223;-67
2022/05/04 00:05:33;;;;;;;14.17;4.97;;;11.30;99.90;;;;;;5136856;27;20649;-66
2022/05/04 00:07:59;;;;;;;7.23;5.20;;;11.40;99.90;;;;;;5136334;27;20251;-67
2022/05/04 00:10:24;;;;;;;6.23;5.37;;;11.10;99.90;;;;;;5136466;27;20166;-66
2022/05/04 00:12:50;;;;;;;6.20;4.93;;;11.00;99.90;;;;;;5136617;27;20248;-67
2022/05/04 00:15:16;;;;;;;8.97;4.23;;;10.80;99.90;;;;;;5136632;27;20479;-66
2022/05/04 00:17:42;;;;;;;6.53;4.70;;;10.80;99.90;;;;;;5136774;27;20582;-67
2022/05/04 00:20:08;;;;;;;5.83;4.63;;;10.90;99.90;;;;;;5136328;27;20183;-67
2022/05/04 00:22:34;;;;;;;10.50;5.20;;;11.00;99.90;;;;;;5136385;27;20197;-67
2022/05/04 00:24:59;;;;;;;5.90;4.27;;;11.00;99.90;;;;;;5136191;27;20175;-65
2022/05/04 00:27:25;;;;;;;7.03;4.63;;;11.00;99.90;;;;;;5136082;27;20157;-67
2022/05/04 00:29:51;;;;;;;6.40;4.70;;;11.00;99.90;;;;;;5136053;27;20236;-66
2022/05/04 00:32:19;;;;;;;7.30;4.33;;;10.90;99.90;;;;;;5136220;27;20206;-66
2022/05/04 00:34:45;;;;;;;6.60;5.07;;;10.80;99.90;;;;;;5132760;27;20185;-67
2022/05/04 00:37:11;;;;;;;6.50;4.80;;;10.80;99.90;;;;;;5135762;27;20162;-67
2022/05/04 00:39:37;;;;;;;6.60;4.73;;;10.80;99.90;;;;;;5136248;27;20165;-67
2022/05/04 00:42:07;;;;;;;8.30;4.33;;;10.80;99.90;;;;;;5136036;27;20203;-65
2022/05/04 00:44:32;;;;;;;4.80;4.27;;;10.60;99.90;;;;;;5136493;27;20644;-66
2022/05/04 00:46:59;;;;;;;6.40;4.70;;;10.50;99.90;;;;;;5135953;27;20226;-67
2022/05/04 00:49:24;;;;;;;8.00;5.10;;;10.40;99.90;;;;;;5136178;27;20751;-67
2022/05/04 00:51:50;;;;;;;5.80;4.67;;;10.40;99.90;;;;;;5136256;27;20170;-66
2022/05/04 00:54:16;;;;;;;5.40;4.20;;;10.40;99.90;;;;;;5139033;27;20153;-66
2022/05/04 00:56:42;;;;;;;7.70;4.90;;;10.40;99.90;;;;;;5136710;27;20158;-67
2022/05/04 00:59:08;;;;;;;5.43;4.30;;;10.50;99.90;;;;;;5136602;27;20158;-66
2022/05/04 01:01:34;;;;;;;5.83;4.93;;;10.50;99.90;;;;;;5135912;27;20169;-67
2022/05/04 01:03:59;;;;;;;6.73;4.87;;;10.30;99.90;;;;;;5136675;27;20208;-67
2022/05/04 01:06:27;;;;;;;6.83;4.80;;;10.10;99.90;;;;;;5138570;27;20216;-67
2022/05/04 01:08:54;;;;;;;7.20;4.73;;;10.30;99.90;;;;;;5139861;27;20665;-66
2022/05/04 01:11:21;;;;;;;5.97;5.20;;;10.30;99.90;;;;;;5143207;27;20295;-66
2022/05/04 01:14:01;;;;;;;8.70;4.83;;;10.40;99.90;;;;;;5141998;27;20188;-66
2022/05/04 01:16:27;;;;;;;10.40;4.43;;;10.30;99.90;;;;;;5135918;27;20164;-68
2022/05/04 01:18:53;;;;;;;6.90;5.07;;;10.20;99.90;;;;;;5135686;27;20211;-67
2022/05/04 01:21:19;;;;;;;7.07;5.47;;;10.20;99.90;;;;;;5135233;27;20577;-65
2022/05/04 01:23:46;;;;;;;6.33;4.90;;;10.20;99.90;;;;;;5135135;27;20201;-66
2022/05/04 01:26:13;;;;;;;10.20;5.60;;;10.20;99.90;;;;;;5135094;27;20165;-66
2022/05/04 01:28:38;;;;;;;6.33;4.93;;;10.00;99.90;;;;;;5135117;27;20192;-65
2022/05/04 01:31:04;;;;;;;10.53;5.37;;;9.90;99.90;;;;;;5117284;27;20182;-65
2022/05/04 01:33:30;;;;;;;8.90;5.17;;;10.00;99.90;;;;;;5150412;27;20627;-64
2022/05/04 01:35:55;;;;;;;7.93;5.13;;;10.00;99.90;;;;;;5134984;27;20223;-66
2022/05/04 01:38:21;;;;;;;7.13;5.17;;;10.10;99.90;;;;;;5135186;27;20503;-67
2022/05/04 01:40:46;;;;;;;8.57;5.77;;;10.10;99.90;;;;;;5134755;27;20161;-67
2022/05/04 01:43:12;;;;;;;5.87;4.77;;;10.10;99.90;;;;;;5134385;27;20193;-67
2022/05/04 01:45:38;;;;;;;11.77;6.03;;;10.00;99.90;;;;;;5134419;27;20215;-66
2022/05/04 01:48:04;;;;;;;6.80;5.30;;;10.00;99.90;;;;;;5130553;27;20181;-65
2022/05/04 01:50:29;;;;;;;6.37;5.17;;;10.00;99.90;;;;;;5134513;27;20165;-65
2022/05/04 01:52:55;;;;;;;7.13;5.57;;;9.90;99.90;;;;;;5116736;28;20188;-66
2022/05/04 01:55:22;;;;;;;12.77;5.33;;;9.90;99.90;;;;;;5093776;28;20201;-65
2022/05/04 01:57:48;;;;;;;10.77;6.27;;;9.80;99.90;;;;;;5096996;28;20177;-65
2022/05/04 02:00:14;;;;;;;9.00;5.87;;;9.70;99.90;;;;;;5114307;28;20163;-67
2022/05/04 02:02:39;;;;;;;11.03;5.90;;;9.80;99.90;;;;;;5095227;28;20260;-65
2022/05/04 02:05:06;;;;;;;5.87;5.20;;;9.70;99.90;;;;;;5114093;28;20175;-66
2022/05/04 02:07:35;;;;;;;7.20;6.00;;;9.70;99.90;;;;;;5114184;28;20165;-64
2022/05/04 02:10:02;;;;;;;7.67;5.57;;;9.60;99.90;;;;;;5114202;28;20158;-65
2022/05/04 02:12:28;;;;;;;7.57;5.90;;;9.60;99.90;;;;;;5114409;28;20166;-66
2022/05/04 02:14:54;;;;;;;7.70;5.70;;;9.70;99.90;;;;;;5114189;28;20567;-66
2022/05/04 02:17:20;;;;;;;8.27;5.33;;;9.70;99.90;;;;;;5115461;28;20162;-65
2022/05/04 02:19:45;;;;;;;6.73;6.03;;;9.60;99.90;;;;;;5116334;28;20501;-65
2022/05/04 02:22:11;;;;;;;10.40;5.37;;;9.70;99.90;;;;;;5114585;28;20158;-66
2022/05/04 02:24:36;;;;;;;7.30;5.87;;;9.70;99.90;;;;;;5114831;28;20162;-67
2022/05/04 02:27:02;;;;;;;7.70;5.47;;;9.60;99.90;;;;;;5114968;28;20170;-66
2022/05/04 02:29:29;;;;;;;9.23;5.87;;;9.60;99.90;;;;;;5120223;28;20185;-66
2022/05/04 02:31:58;;;;;;;9.30;6.60;;;9.60;99.90;;;;;;5135218;28;20206;-66
2022/05/04 02:34:24;;;;;;;8.20;6.00;;;9.40;99.90;;;;;;5134843;28;20241;-65
2022/05/04 02:39:34;;;;;;;9.87;6.40;;;9.50;99.90;;;;;;5135473;28;20214;-66
2022/05/04 02:42:00;;;;;;;10.00;5.60;;;9.50;99.90;;;;;;5153899;28;20193;-66
2022/05/04 02:44:26;;;;;;;8.27;6.47;;;9.60;99.90;;;;;;5147819;28;20197;-67
2022/05/04 02:46:51;;;;;;;7.73;5.90;;;9.50;99.90;;;;;;5134274;28;20654;-67
2022/05/04 02:49:17;;;;;;;7.70;6.13;;;9.40;99.90;;;;;;5134031;28;20541;-65
2022/05/04 02:51:43;;;;;;;7.90;5.70;;;9.40;99.90;;;;;;5133861;28;20172;-67
2022/05/04 02:54:09;;;;;;;7.67;6.20;;;9.40;99.90;;;;;;5134037;28;20169;-66
2022/05/04 02:56:34;;;;;;;8.27;5.93;;;9.40;99.90;;;;;;5134008;28;20221;-65
2022/05/04 02:59:00;;;;;;;10.27;6.80;;;9.40;99.90;;;;;;5133532;28;20593;-64
2022/05/04 03:04:10;;;;;;;7.30;6.17;;;9.30;99.90;;;;;;5137638;27;20228;-65
2022/05/04 03:06:39;;;;;;;9.77;5.63;;;9.20;99.90;;;;;;5137900;27;20589;-65
2022/05/04 03:09:05;;;;;;;9.20;5.73;;;9.00;99.90;;;;;;5137397;27;20157;-67
2022/05/04 03:14:18;;;;;;;11.07;4.63;;;9.10;99.90;;;;;;5137267;27;20246;-66
2022/05/04 03:16:44;;;;;;;7.97;6.67;;;9.10;99.90;;;;;;5137933;27;20154;-67
2022/05/04 03:19:10;;;;;;;7.00;4.13;;;9.10;99.90;;;;;;5137494;27;20168;-66
2022/05/04 03:21:36;;;;;;;11.43;4.23;;;9.10;99.90;;;;;;5119392;27;20185;-65
2022/05/04 03:24:02;;;;;;;6.70;4.63;;;9.10;99.90;;;;;;5137595;27;20296;-65
2022/05/04 03:26:28;;;;;;;9.07;5.47;;;9.10;99.90;;;;;;5137316;27;20169;-66
2022/05/04 03:28:53;;;;;;;10.90;5.97;;;9.20;99.90;;;;;;5136979;27;20245;-65
2022/05/04 03:31:19;;;;;;;10.87;5.30;;;9.30;99.90;;;;;;5136778;27;20165;-65
2022/05/04 03:33:45;;;;;;;7.40;4.93;;;9.10;99.90;;;;;;5137048;27;20608;-65
2022/05/04 03:36:11;;;;;;;6.03;4.73;;;9.10;99.90;;;;;;5137361;27;20189;-65
2022/05/04 03:38:37;;;;;;;8.33;5.00;;;9.30;99.90;;;;;;5137326;27;20233;-66
2022/05/04 03:41:03;;;;;;;7.17;3.90;;;9.30;99.90;;;;;;5138963;27;20172;-68
2022/05/04 03:43:28;;;;;;;9.87;4.40;;;9.20;99.90;;;;;;5138433;27;20190;-66
2022/05/04 03:45:54;;;;;;;6.73;4.57;;;9.10;99.90;;;;;;5136651;27;20157;-67
2022/05/04 03:48:21;;;;;;;10.90;4.07;;;9.10;99.90;;;;;;5137609;27;20483;-65
2022/05/04 03:50:46;;;;;;;7.77;5.33;;;8.90;99.90;;;;;;5136398;27;20154;-66
2022/05/04 03:53:13;;;;;;;5.60;4.57;;;8.90;99.90;;;;;;5136807;27;20166;-66
2022/05/04 03:55:39;;;;;;;7.80;4.90;;;9.00;99.90;;;;;;5136584;27;20161;-66
2022/05/04 03:58:05;;;;;;;6.70;4.70;;;9.00;99.90;;;;;;5136353;27;20169;-65
2022/05/04 04:00:31;;;;;;;7.70;4.50;;;9.00;99.90;;;;;;5136697;27;20258;-65
2022/05/04 04:02:56;;;;;;;7.70;5.10;;;9.00;99.90;;;;;;5136578;27;20684;-66
2022/05/04 04:05:23;;;;;;;7.77;4.07;;;9.00;99.90;;;;;;5136592;27;20234;-65
2022/05/04 04:07:49;;;;;;;7.43;5.13;;;9.00;99.90;;;;;;5136847;27;20157;-65
2022/05/04 04:10:15;;;;;;;7.47;5.00;;;9.00;99.90;;;;;;5136765;27;20174;-65
2022/05/04 04:12:41;;;;;;;7.13;4.83;;;8.90;99.90;;;;;;5136176;27;20173;-66
2022/05/04 04:15:07;;;;;;;7.90;4.93;;;8.90;99.90;;;;;;5136300;27;20165;-67
2022/05/04 04:17:32;;;;;;;5.60;4.00;;;9.00;99.90;;;;;;5117857;27;20646;-65
2022/05/04 04:22:42;;;;;;;12.73;4.50;;;8.80;99.90;;;;;;5136249;27;20574;-67
2022/05/04 04:25:08;;;;;;;6.30;4.17;;;8.90;99.90;;;;;;5136772;27;20158;-63
2022/05/04 04:27:35;;;;;;;8.40;4.33;;;9.10;99.90;;;;;;5136251;27;20158;-65
2022/05/04 04:30:00;;;;;;;6.43;4.50;;;9.10;99.90;;;;;;5136640;27;20200;-65
2022/05/04 04:32:26;;;;;;;8.07;5.33;;;9.10;99.90;;;;;;5136137;27;20219;-65
2022/05/04 04:34:52;;;;;;;9.93;4.13;;;9.10;99.90;;;;;;5136890;27;20169;-66
2022/05/04 04:37:17;;;;;;;5.23;4.07;;;9.10;99.90;;;;;;5137335;27;20559;-65
2022/05/04 04:39:43;;;;;;;6.67;4.53;;;9.20;99.90;;;;;;5138456;27;20170;-66
2022/05/04 04:42:12;;;;;;;6.37;4.67;;;9.30;99.90;;;;;;5119721;27;20522;-66
2022/05/04 04:44:38;;;;;;;7.40;4.53;;;9.30;99.90;;;;;;5136617;27;20200;-66
2022/05/04 04:47:04;;;;;;;8.33;5.87;;;9.40;99.90;;;;;;5136419;27;20153;-66
2022/05/04 04:49:29;;;;;;;8.47;5.67;;;9.30;99.90;;;;;;5136524;27;20210;-65
2022/05/04 04:51:55;;;;;;;6.07;4.93;;;9.50;99.90;;;;;;5117688;27;20508;-64
2022/05/04 04:54:20;;;;;;;6.07;5.00;;;9.60;99.90;;;;;;5136326;27;20203;-65
2022/05/04 04:56:46;;;;;;;7.60;4.93;;;9.70;99.90;;;;;;5135561;27;20161;-66
2022/05/04 04:59:12;;;;;;;8.17;5.00;;;9.80;99.90;;;;;;5117614;27;20169;-65
2022/05/04 05:01:37;;;;;;;9.53;5.70;;;9.90;99.90;;;;;;5135845;27;20623;-66
2022/05/04 05:04:03;;;;;;;10.00;6.33;;;9.90;99.90;;;;;;5136192;27;20205;-66
2022/05/04 05:06:30;;;;;;;9.43;5.50;;;9.80;99.90;;;;;;5141167;27;20157;-66
2022/05/04 05:08:56;;;;;;;10.70;6.33;;;10.10;99.90;;;;;;5132107;27;20226;-65
2022/05/04 05:11:21;;;;;;;7.87;5.93;;;10.10;99.90;;;;;;5135220;27;20161;-66
2022/05/04 05:16:31;;;;;;;10.53;5.40;;;9.80;99.90;;;;;;5135164;27;20241;-65
2022/05/04 05:18:57;;;;;;;9.50;5.90;;;9.80;99.90;;;;;;5135252;27;20573;-66
2022/05/04 05:21:22;;;;;;;9.77;5.53;;;9.80;99.90;;;;;;5135297;27;20165;-66
2022/05/04 05:23:48;;;;;;;6.90;5.43;;;9.80;99.90;;;;;;5134995;27;20201;-64
2022/05/04 05:26:13;;;;;;;8.50;5.70;;;9.90;99.90;;;;;;5136227;27;20165;-66
2022/05/04 05:28:39;;;;;;;7.10;5.10;;;9.90;99.90;;;;;;5135428;27;20157;-65
2022/05/04 05:31:05;;;;;;;10.57;5.50;;;10.10;99.90;;;;;;5136123;27;20166;-65
2022/05/04 05:33:30;;;;;;;7.60;5.10;;;10.20;99.90;;;;;;5118075;27;20169;-63
2022/05/04 05:35:56;;;;;;;7.10;5.17;;;10.10;99.90;;;;;;5137230;27;20165;-65
2022/05/04 05:38:21;;;;;;;9.27;5.73;;;10.20;99.90;;;;;;5154246;27;20164;-65
2022/05/04 05:40:47;;;;;;;10.13;5.63;;;10.20;99.90;;;;;;5147657;27;20580;-66
2022/05/04 05:43:13;;;;;;;8.87;6.50;;;10.30;99.90;;;;;;5135320;27;20192;-66
2022/05/04 05:45:38;;;;;;;6.70;5.10;;;10.50;99.90;;;;;;5135029;27;20181;-64
2022/05/04 05:48:04;;;;;;;14.70;6.83;;;10.60;99.90;;;;;;5134840;27;20168;-65
2022/05/04 05:50:30;;;;;;;5.43;4.63;;;10.60;99.90;;;;;;5134739;27;20244;-65
2022/05/04 05:52:56;;;;;;;9.10;6.43;;;10.60;99.90;;;;;;5134739;27;20188;-66
2022/05/04 05:55:22;;;;;;;7.77;6.00;;;10.80;99.90;;;;;;5135218;27;20178;-67
2022/05/04 05:57:48;;;;;;;9.20;6.03;;;10.80;99.90;;;;;;5135478;27;20165;-65
2022/05/04 06:00:14;;;;;;;9.43;5.43;;;11.00;99.90;;;;;;5135551;27;20258;-66
2022/05/04 06:02:40;;;;;;;7.97;5.73;;;11.20;99.90;;;;;;5136494;27;20242;-65
2022/05/04 06:05:06;;;;;;;9.67;6.23;;;11.20;99.90;;;;;;5135908;27;20174;-65
2022/05/04 06:07:31;;;;;;;8.73;6.40;;;11.40;99.90;;;;;;5138879;27;20482;-66
2022/05/04 06:09:57;;;;;;;8.53;6.30;;;11.40;99.90;;;;;;5121532;27;20180;-66
2022/05/04 06:12:22;;;;;;;7.10;5.37;;;11.30;99.90;;;;;;5134928;27;20153;-65
2022/05/04 06:14:48;;;;;;;8.67;5.20;;;11.50;99.90;;;;;;5134516;27;20158;-66
2022/05/04 06:17:14;;;;;;;11.50;5.80;;;11.70;99.90;;;;;;5134938;28;20162;-65
2022/05/04 06:19:39;;;;;;;9.20;6.23;;;11.70;99.90;;;;;;5134734;28;20162;-65
2022/05/04 06:22:05;;;;;;;7.80;5.53;;;11.80;99.90;;;;;;5134827;28;20158;-64
2022/05/04 06:24:31;;;;;;;9.00;5.53;;;11.90;99.90;;;;;;5134810;28;20208;-65
2022/05/04 06:26:56;;;;;;;8.87;5.67;;;12.00;99.90;;;;;;5134620;28;20177;-65
2022/05/04 06:34:06;;;;;;;8.50;5.83;;;12.20;99.90;;;;;;5136445;28;20166;-66
2022/05/04 06:34:51;;;;;;;8.60;5.73;;;12.40;99.90;;;;;;5135371;27;20165;-66
2022/05/04 06:37:17;;;;;;;10.87;5.93;;;12.40;99.90;;;;;;5138703;27;20153;-66
2022/05/04 06:39:42;;;;;;;7.63;5.47;;;12.50;99.90;;;;;;5138637;27;20157;-68
2022/05/04 06:42:08;;;;;;;8.07;5.27;;;12.50;99.90;;;;;;5122984;27;20263;-66
2022/05/04 06:44:37;;;;;;;7.67;5.30;;;12.70;99.90;;;;;;5122666;27;20216;-65
2022/05/04 06:47:03;;;;;;;6.87;4.80;;;12.80;99.90;;;;;;5138942;27;20601;-64
2022/05/04 06:49:29;;;;;;;8.90;6.10;;;13.00;99.90;;;;;;5140649;27;20172;-64
2022/05/04 06:51:54;;;;;;;8.83;5.73;;;13.10;99.90;;;;;;5123218;27;20189;-66
2022/05/04 06:54:20;;;;;;;10.90;5.53;;;13.10;99.90;;;;;;5141025;27;20304;-64
2022/05/04 06:56:46;;;;;;;9.97;6.30;;;13.40;99.90;;;;;;5140478;27;20585;-64
2022/05/04 06:59:11;;;;;;;8.07;5.43;;;13.30;99.90;;;;;;5139717;27;20256;-63
2022/05/04 07:01:37;;;;;;;6.60;4.80;;;13.40;99.90;;;;;;5138824;27;20173;-65
2022/05/04 07:04:02;;;;;;;7.87;4.90;;;13.70;99.90;;;;;;5140351;27;20539;-66
2022/05/04 07:06:28;;;;;;;10.00;5.13;;;13.70;99.90;;;;;;5139881;27;20150;-66
2022/05/04 07:08:54;;;;;;;7.00;5.23;;;13.70;99.90;;;;;;5142423;27;20509;-67
2022/05/04 07:11:19;;;;;;;11.10;5.30;;;13.80;99.90;;;;;;5141440;27;20565;-65
2022/05/04 07:13:45;;;;;;;6.97;5.10;;;13.80;99.90;;;;;;5142712;27;20656;-65
2022/05/04 07:16:11;;;;;;;11.67;5.83;;;14.00;99.90;;;;;;5141991;27;20161;-66
2022/05/04 07:18:36;;;;;;;5.63;4.60;;;14.20;99.90;;;;;;5142899;27;20183;-67
2022/05/04 07:21:02;;;;;;;10.57;5.13;;;14.30;99.90;;;;;;5142936;27;20161;-66
2022/05/04 07:23:27;;;;;;;6.77;5.17;;;14.40;99.90;;;;;;5141617;27;20609;-66
2022/05/04 07:25:54;;;;;;;11.43;5.87;;;14.60;99.90;;;;;;5142259;27;20197;-66
2022/05/04 07:28:20;;;;;;;8.10;5.43;;;14.50;99.90;;;;;;5141694;27;20259;-66
2022/05/04 07:30:45;;;;;;;7.23;5.17;;;14.50;99.90;;;;;;5142368;27;20170;-66
2022/05/04 07:33:11;;;;;;;5.77;4.83;;;14.40;99.90;;;;;;5121689;27;20169;-66
2022/05/04 07:35:37;;;;;;;7.13;4.93;;;14.50;99.90;;;;;;5138404;27;20171;-67
2022/05/04 07:38:03;;;;;;;11.97;5.73;;;14.70;99.90;;;;;;5137849;27;20512;-65
2022/05/04 07:43:13;;;;;;;7.50;4.77;;;15.20;99.90;;;;;;5137311;27;20203;-66
2022/05/04 07:45:38;;;;;;;6.57;5.03;;;15.40;99.90;;;;;;5137121;27;20165;-65
2022/05/04 07:48:04;;;;;;;13.83;5.60;;;15.40;99.90;;;;;;5136920;27;20165;-64
2022/05/04 07:50:30;;;;;;;5.57;4.17;;;15.90;99.90;;;;;;5137796;27;20169;-64
2022/05/04 07:52:55;;;;;;;8.97;5.00;;;16.30;99.90;;;;;;5140052;27;20240;-66
2022/05/04 07:55:21;;;;;;;6.90;5.03;;;16.30;99.90;;;;;;5137799;27;20154;-65
2022/05/04 07:57:48;;;;;;;7.50;4.40;;;16.30;99.90;;;;;;5137836;27;20166;-67
2022/05/04 08:05:43;;;;;;;5.47;3.50;;;16.40;99.10;;;;;;5146385;27;20161;-66
2022/05/04 08:08:09;;;;;;;8.55;4.25;;;16.70;98.30;;;;;;5139376;27;20504;-67
2022/05/04 08:10:35;;;;;;;6.28;3.92;;;16.80;97.50;;;;;;5137440;27;20223;-65
2022/05/04 08:13:00;;;;;;;4.45;3.63;;;16.60;96.50;;;;;;5136623;27;20165;-65
2022/05/04 08:15:26;;;;;;;5.43;4.07;;;16.50;96.40;;;;;;5136682;27;20240;-65
2022/05/04 08:17:52;;;;;;;11.43;4.00;;;16.70;97.50;;;;;;5137242;27;20173;-66
2022/05/04 08:20:18;;;;;;;8.55;4.25;;;16.70;97.00;;;;;;5136440;27;20189;-66
2022/05/04 08:22:43;;;;;;;4.32;3.63;;;16.90;97.50;;;;;;5136772;27;20212;-67
2022/05/04 08:25:09;;;;;;;5.55;4.00;;;17.10;96.60;;;;;;5136371;27;20150;-65
2022/05/04 08:27:35;;;;;;;4.32;3.80;;;17.30;95.70;;;;;;5137078;27;20580;-66
2022/05/04 08:30:01;;;;;;;4.60;3.42;;;17.50;95.50;;;;;;5136615;27;20210;-65
2022/05/04 08:32:31;;;;;;;5.28;4.13;;;17.80;93.70;;;;;;5136966;27;20593;-65
2022/05/04 08:34:58;;;;;;;5.53;3.88;;;18.00;92.40;;;;;;5138312;27;20157;-67
2022/05/04 08:37:23;;;;;;;4.10;3.50;;;18.30;90.80;;;;;;5149520;27;20261;-66
2022/05/04 08:39:49;;;;;;;5.28;3.65;;;18.20;90.40;;;;;;5153183;27;20175;-65
2022/05/04 08:42:16;;;;;;;5.38;3.17;;;18.50;88.50;;;;;;5142584;27;20180;-65
2022/05/04 08:44:46;;;;;;;4.43;3.50;;;18.70;87.70;;;;;;5137797;27;20312;-67
2022/05/04 08:47:15;;;;;;;7.93;3.42;;;18.90;86.30;;;;;;5136957;27;20256;-66
2022/05/04 08:49:42;;;;;;;4.35;3.65;;;18.90;83.70;;;;;;5136310;27;20165;-66
2022/05/04 08:52:11;;;;;;;13.48;3.25;;;18.90;81.70;;;;;;5135774;27;20165;-68
2022/05/04 08:54:36;;;;;;;3.70;2.92;;;18.60;82.00;;;;;;5135625;27;20158;-66
2022/05/04 08:57:03;;;;;;;6.22;3.38;;;18.90;82.90;;;;;;5136293;27;20173;-66
2022/05/04 08:59:29;;;;;;;4.10;3.10;;;19.00;81.80;;;;;;5135838;27;20173;-66
2022/05/04 09:01:55;;;;;;;4.00;2.90;;;19.30;82.50;;;;;;5135941;27;20668;-65
2022/05/04 09:04:21;;;;;;;3.95;3.05;;;19.10;81.10;;;;;;5135696;27;20201;-65
2022/05/04 09:06:48;;;;;;;5.10;2.72;;;19.40;78.50;;;;;;5135281;27;20162;-67
2022/05/04 09:09:15;;;;;;;4.78;2.80;;;19.40;78.50;;;;;;5135897;27;20165;-65
2022/05/04 09:11:45;;;;;;;3.78;3.13;;;19.70;78.10;;;;;;5136028;27;20166;-65
2022/05/04 09:14:17;;;;;;;5.38;3.08;;;19.50;75.40;;;;;;5118562;27;20174;-65
2022/05/04 09:16:43;;;;;;;4.47;3.08;;;19.80;76.20;;;;;;5154913;27;20207;-66
2022/05/04 09:19:11;;;;;;;4.13;2.97;;;19.90;73.90;;;;;;5138724;27;20189;-66
2022/05/04 09:21:36;;;;;;;4.95;3.40;;;19.70;72.30;;;;;;5135746;27;20164;-67
2022/05/04 09:24:03;;;;;;;10.70;3.05;;;19.90;72.00;;;;;;5117201;27;20546;-65
2022/05/04 09:26:28;;;;;;;2.95;2.67;;;20.10;72.80;;;;;;5135311;27;20197;-65
2022/05/04 09:28:58;;;;;;;3.38;3.08;;;20.30;70.40;;;;;;5134961;27;20202;-67
2022/05/04 09:31:26;;;;;;;6.05;3.13;;;20.40;70.40;;;;;;5135240;27;20165;-65
2022/05/04 09:33:53;;;;;;;4.40;2.75;;;20.50;69.40;;;;;;5116213;27;20192;-67
2022/05/04 09:36:31;;;;;;;10.05;3.30;;;20.60;68.40;;;;;;5114314;28;20177;-67
2022/05/04 09:47:22;;;;;;;6.07;3.28;;;20.70;66.60;;;;;;5114304;28;20663;-69
2022/05/04 09:49:49;;;;;;;3.75;2.78;;;21.00;64.40;;;;;;5114585;28;20192;-66
2022/05/04 09:52:20;;;;;;;4.43;2.90;;;20.80;63.60;;;;;;5114451;28;20166;-66
2022/05/04 09:54:46;;;;;;;4.47;2.90;;;21.00;64.60;;;;;;5114410;28;20162;-66
2022/05/04 09:57:12;;;;;;;4.00;3.00;;;21.10;62.20;;;;;;5114429;28;20162;-66
2022/05/04 09:59:38;;;;;;;4.50;3.10;;;20.90;62.60;;;;;;5114535;28;20245;-65
2022/05/04 10:02:07;;;;;;;5.32;2.78;;;21.20;62.60;;;;;;5114576;28;20641;-67
2022/05/04 10:04:34;;;;;;;4.07;3.08;;;21.50;62.70;;;;;;5114627;28;20256;-65
2022/05/04 10:07:01;;;;;;;3.55;3.00;;;21.90;61.70;;;;;;5114035;28;20535;-65
2022/05/04 10:09:27;;;;;;;4.13;3.50;;;21.40;60.00;;;;;;5113651;28;20221;-66
2022/05/04 10:11:57;;;;;;;5.05;3.53;;;21.30;60.40;;;;;;5114584;28;20212;-65
2022/05/04 10:14:25;;;;;;;6.03;3.78;;;21.70;61.70;;;;;;5114311;28;20586;-68
2022/05/04 10:16:56;;;;;;;4.22;3.17;;;21.30;60.10;;;;;;5130361;28;20181;-65
2022/05/04 10:19:33;;;;;;;8.77;3.20;;;21.40;60.20;;;;;;5114163;28;20182;-67
2022/05/04 10:22:01;;;;;;;6.22;3.45;;;21.80;60.80;;;;;;5113633;28;20158;-65
2022/05/04 10:24:31;;;;;;;3.33;3.00;;;21.90;60.20;;;;;;5113882;28;20648;-68
2022/05/04 10:27:18;;;;;;;7.10;3.67;;;21.90;58.50;;;;;;5114037;28;20246;-66
2022/05/04 10:32:44;;;;;;;3.65;3.35;;;22.10;58.40;;;;;;5114410;28;20173;-69
2022/05/04 10:35:33;;;;;;;3.42;3.13;;;22.00;57.00;;;;;;5113629;28;20162;-66
2022/05/04 10:37:59;;;;;;;6.22;3.17;;;22.20;56.20;;;;;;5113894;28;20214;-68
2022/05/04 10:40:27;;;;;;;3.35;3.05;;;22.40;57.20;;;;;;5116746;28;20163;-64
2022/05/04 10:42:58;;;;;;;3.60;2.88;;;22.60;56.40;;;;;;5115243;28;20201;-65
2022/05/04 10:45:49;;;;;;;7.10;3.08;;;22.90;55.90;;;;;;5113675;28;20159;-66
2022/05/04 10:48:20;;;;;;;3.40;3.10;;;23.00;55.20;;;;;;5115028;28;20190;-67
2022/05/04 10:50:50;;;;;;;3.90;3.38;;;22.70;55.00;;;;;;5114075;28;20223;-67
2022/05/04 10:53:25;;;;;;;6.07;3.30;;;22.50;55.60;;;;;;5113745;28;20609;-67
2022/05/04 10:56:00;;;;;;;6.63;3.05;;;22.70;54.80;;;;;;5114124;28;20182;-65
2022/05/04 10:58:37;;;;;;;3.33;3.03;;;22.40;55.00;;;;;;5120216;28;20154;-66
2022/05/04 11:01:12;;;;;;;4.47;3.00;;;22.40;54.10;;;;;;5119166;28;20204;-66
2022/05/04 11:03:58;;;;;;;3.45;2.80;;;22.00;54.40;;;;;;5118662;28;20236;-66
2022/05/04 11:06:25;;;;;;;3.78;2.97;;;22.80;54.50;;;;;;5117935;28;20177;-66
2022/05/04 11:08:51;;;;;;;10.77;3.28;;;22.50;53.60;;;;;;5118723;28;20162;-66
2022/05/04 11:11:20;;;;;;;4.80;2.92;;;22.60;54.40;;;;;;5117693;28;20204;-66
2022/05/04 11:13:46;;;;;;;4.53;2.88;;;23.00;54.00;;;;;;5115547;28;20151;-65
2022/05/04 11:16:13;;;;;;;3.10;2.85;;;23.00;53.40;;;;;;5116616;28;20191;-65
2022/05/04 11:18:38;;;;;;;3.20;2.90;;;23.40;53.50;;;;;;5117074;28;20230;-66
2022/05/04 11:21:14;;;;;;;6.05;2.92;;;23.60;53.10;;;;;;5115665;28;20642;-67
2022/05/04 11:23:44;;;;;;;3.42;2.90;;;23.50;53.00;;;;;;5118119;28;20197;-68
2022/05/04 11:26:18;;;;;;;3.55;2.50;;;23.40;52.30;;;;;;5118648;28;20215;-65
2022/05/04 11:28:44;;;;;;;5.10;2.95;;;22.70;52.80;;;;;;5118619;28;20159;-65
2022/05/04 11:31:10;;;;;;;6.68;3.28;;;22.30;52.80;;;;;;5120939;28;20222;-65
2022/05/04 11:33:36;;;;;;;5.63;4.53;;;22.10;54.10;;;;;;5121891;28;20162;-67
2022/05/04 11:36:02;;;;;;;4.38;2.75;;;22.00;54.20;;;;;;5121390;28;20698;-64
2022/05/04 11:38:27;;;;;;;2.97;2.70;;;22.00;54.20;;;;;;5123934;28;20162;-66
2022/05/04 11:40:54;;;;;;;4.60;2.70;;;21.90;55.20;;;;;;5137874;27;20566;-65
2022/05/04 11:43:27;;;;;;;4.00;2.85;;;22.20;55.50;;;;;;5119116;28;20194;-64
2022/05/04 11:45:56;;;;;;;10.88;3.25;;;22.40;54.20;;;;;;5117499;28;20500;-66
2022/05/04 11:48:22;;;;;;;3.85;3.13;;;22.00;54.00;;;;;;5134570;27;20250;-65
2022/05/04 11:50:49;;;;;;;3.95;3.20;;;21.60;54.60;;;;;;5121048;28;20249;-65
2022/05/04 11:53:15;;;;;;;4.30;3.10;;;21.70;55.20;;;;;;5100678;28;20166;-67
2022/05/04 11:55:41;;;;;;;4.45;2.95;;;21.70;55.20;;;;;;5117137;28;20215;-65
2022/05/04 11:58:11;;;;;;;4.32;2.78;;;21.80;55.00;;;;;;5116474;28;20170;-67
2022/05/04 12:00:38;;;;;;;3.13;2.45;;;22.50;54.90;;;;;;5116731;28;20158;-66
2022/05/04 12:03:05;;;;;;;4.72;3.17;;;22.60;54.20;;;;;;5117280;28;20228;-66
2022/05/04 12:05:34;;;;;;;3.53;2.83;;;22.60;53.60;;;;;;5119125;28;20539;-65
2022/05/04 12:08:01;;;;;;;4.53;2.53;;;22.20;53.20;;;;;;5116453;28;20166;-66
2022/05/04 12:10:29;;;;;;;86.78;48.65;;;22.10;53.80;;;;;;5115926;28;20478;-70
2022/05/04 12:12:56;;;;;;;5.43;3.25;;;22.20;54.60;;;;;;5116456;28;20165;-66
2022/05/04 12:15:27;;;;;;;4.03;3.10;;;21.80;54.00;;;;;;5132670;27;20614;-67
2022/05/04 12:18:06;;;;;;;3.35;3.05;;;22.20;54.70;;;;;;5116133;28;20226;-66
2022/05/04 12:20:34;;;;;;;4.75;3.17;;;22.90;53.80;;;;;;5131794;27;20170;-66
2022/05/04 12:23:01;;;;;;;6.20;3.30;;;23.40;52.40;;;;;;5115953;28;20629;-67
2022/05/04 12:25:27;;;;;;;3.30;2.80;;;23.20;51.60;;;;;;5115673;28;20173;-67
2022/05/04 12:27:55;;;;;;;5.28;3.33;;;23.00;51.60;;;;;;5115878;28;20185;-68
2022/05/04 12:33:11;;;;;;;6.03;3.38;;;22.50;51.40;;;;;;5115482;28;20166;-66
2022/05/04 12:35:46;;;;;;;3.85;3.40;;;22.30;52.10;;;;;;5097754;28;20177;-65
2022/05/04 12:38:18;;;;;;;3.85;3.08;;;22.50;51.40;;;;;;5115318;28;20165;-68
2022/05/04 12:40:43;;;;;;;4.53;3.05;;;22.70;51.60;;;;;;5115516;28;20169;-66
2022/05/04 12:43:09;;;;;;;3.33;3.03;;;22.90;51.30;;;;;;5115331;28;20296;-64
2022/05/04 12:45:36;;;;;;;8.90;3.05;;;23.00;50.80;;;;;;5115241;28;20166;-65
2022/05/04 12:48:07;;;;;;;3.72;2.78;;;23.50;51.10;;;;;;5115814;28;20173;-65
2022/05/04 12:50:33;;;;;;;3.40;3.10;;;23.40;50.00;;;;;;5115334;28;20162;-66
2022/05/04 12:52:59;;;;;;;4.03;3.00;;;23.60;50.60;;;;;;5097408;28;20169;-66
2022/05/04 12:58:09;;;;;;;5.05;3.20;;;23.20;49.20;;;;;;5115440;28;20203;-63
2022/05/04 13:00:35;;;;;;;3.13;2.80;;;23.30;50.40;;;;;;5115366;28;20167;-66
2022/05/04 13:03:01;;;;;;;5.15;2.40;;;23.70;49.70;;;;;;5115115;28;20544;-65
2022/05/04 13:05:27;;;;;;;5.03;2.85;;;23.80;49.50;;;;;;5097639;28;20178;-67
2022/05/04 13:07:52;;;;;;;6.10;3.08;;;23.80;48.40;;;;;;5117267;28;20197;-66
2022/05/04 13:10:18;;;;;;;4.88;3.05;;;23.90;48.40;;;;;;5117456;28;20166;-65
2022/05/04 13:12:44;;;;;;;6.30;3.45;;;24.20;48.60;;;;;;5117082;28;20199;-65
2022/05/04 13:15:10;;;;;;;6.80;3.05;;;24.50;48.80;;;;;;5116679;28;20537;-68
2022/05/04 13:17:36;;;;;;;8.65;3.03;;;24.10;49.00;;;;;;5116150;28;20178;-67
2022/05/04 13:20:03;;;;;;;6.10;4.00;;;23.90;49.40;;;;;;5115118;28;20500;-67
2022/05/04 13:22:28;;;;;;;4.53;3.03;;;23.80;48.60;;;;;;5114798;28;20505;-67
2022/05/04 13:24:55;;;;;;;4.15;2.83;;;23.90;49.10;;;;;;5130284;27;20198;-66
2022/05/04 13:27:21;;;;;;;6.38;3.40;;;24.40;48.80;;;;;;5115161;28;20169;-69